createdAt,value
2022-08-14T00:02:26.934Z,70.34
2022-08-14T00:04:57.578Z,70.66
2022-08-14T00:07:25.862Z,70.36
2022-08-14T00:10:02.541Z,70.14
2022-08-14T00:12:53.461Z,70.33
2022-08-14T00:15:26.775Z,70.45
2022-08-14T00:17:59.253Z,70.74
2022-08-14T00:20:35.803Z,71.47
2022-08-14T00:23:14.662Z,71.29
2022-08-14T00:25:53.720Z,71.22
2022-08-14T00:28:35.621Z,71.23
2022-08-14T00:31:05.446Z,71.36
2022-08-14T00:33:39.328Z,71.56
2022-08-14T00:36:37.635Z,72.47
2022-08-14T00:39:18.372Z,72.85
2022-08-14T00:41:47.824Z,73.16
2022-08-14T00:44:26.616Z,73.55
2022-08-14T00:47:02.505Z,73.41
2022-08-14T00:49:38.380Z,73.51
2022-08-14T00:52:18.034Z,74.00
2022-08-14T00:54:57.937Z,74.11
2022-08-14T00:57:27.981Z,74.28
2022-08-14T00:59:57.603Z,74.42
2022-08-14T01:02:27.744Z,74.60
2022-08-14T01:05:01.628Z,74.92
2022-08-14T01:07:38.566Z,75.08
2022-08-14T01:10:07.881Z,75.39
2022-08-14T01:12:40.418Z,75.63
2022-08-14T01:15:10.023Z,75.69
2022-08-14T01:17:53.894Z,75.96
2022-08-14T01:20:32.540Z,75.86
2022-08-14T01:23:02.581Z,75.54
2022-08-14T01:25:33.703Z,75.35
2022-08-14T01:28:03.457Z,74.99
2022-08-14T01:30:37.917Z,75.24
2022-08-14T01:33:09.295Z,75.24
2022-08-14T01:36:03.545Z,75.26
2022-08-14T01:38:37.203Z,74.42
2022-08-14T01:41:14.831Z,73.97
2022-08-14T01:43:45.341Z,73.91
2022-08-14T01:46:26.479Z,73.79
2022-08-14T01:49:04.414Z,74.07
2022-08-14T01:51:36.653Z,74.50
2022-08-14T01:54:09.883Z,75.02
2022-08-14T01:56:44.910Z,75.24
2022-08-14T01:59:21.761Z,74.85
2022-08-14T02:01:58.891Z,74.69
2022-08-14T02:04:56.058Z,74.40
2022-08-14T02:07:34.330Z,74.02
2022-08-14T02:10:13.089Z,73.77
2022-08-14T02:12:44.780Z,73.64
2022-08-14T02:15:23.133Z,73.59
2022-08-14T02:17:51.793Z,73.43
2022-08-14T02:20:23.741Z,73.49
2022-08-14T02:22:54.989Z,73.50
2022-08-14T02:25:29.979Z,73.38
2022-08-14T02:28:25.439Z,73.49
2022-08-14T02:30:48.251Z,73.58
2022-08-14T02:33:21.451Z,73.29
2022-08-14T02:35:53.512Z,73.46
2022-08-14T02:38:30.424Z,73.80
2022-08-14T02:41:08.893Z,74.13
2022-08-14T02:43:46.364Z,74.22
2022-08-14T02:46:20.495Z,74.34
2022-08-14T02:49:04.970Z,74.30
2022-08-14T02:51:36.524Z,74.15
2022-08-14T02:54:07.496Z,74.09
2022-08-14T02:57:15.642Z,74.47
2022-08-14T02:59:33.825Z,74.78
2022-08-14T03:02:03.864Z,74.70
2022-08-14T03:04:33.324Z,74.67
2022-08-14T03:07:07.499Z,74.77
2022-08-14T03:10:24.232Z,74.80
2022-08-14T03:12:32.438Z,75.04
2022-08-14T03:15:05.242Z,75.51
2022-08-14T03:17:56.605Z,76.17
2022-08-14T03:20:23.203Z,76.64
2022-08-14T03:22:52.757Z,76.93
2022-08-14T03:25:22.690Z,77.20
2022-08-14T03:27:58.400Z,77.20
2022-08-14T03:30:39.323Z,77.60
2022-08-14T03:33:11.699Z,77.65
2022-08-14T03:36:05.534Z,77.92
2022-08-14T03:39:13.885Z,77.83
2022-08-14T03:41:23.236Z,77.76
2022-08-14T03:43:57.893Z,77.73
2022-08-14T03:46:52.289Z,77.69
2022-08-14T03:49:29.260Z,77.60
2022-08-14T03:52:00.865Z,77.45
2022-08-14T03:54:30.369Z,77.73
2022-08-14T03:57:02.769Z,77.79
2022-08-14T03:59:35.339Z,77.89
2022-08-14T04:02:31.876Z,78.05
2022-08-14T04:04:53.607Z,77.71
2022-08-14T04:07:22.630Z,77.55
2022-08-14T04:09:52.754Z,76.98
2022-08-14T04:12:26.106Z,76.60
2022-08-14T04:14:57.932Z,76.21
2022-08-14T04:17:26.511Z,75.91
2022-08-14T04:19:55.851Z,75.94
2022-08-14T04:22:25.540Z,76.18
2022-08-14T04:24:54.324Z,76.62
2022-08-14T04:27:23.443Z,76.32
2022-08-14T04:29:51.974Z,75.99
2022-08-14T04:32:57.772Z,75.65
2022-08-14T04:35:11.404Z,75.54
2022-08-14T04:37:53.691Z,75.50
2022-08-14T04:40:32.414Z,75.50
2022-08-14T04:43:14.430Z,75.79
2022-08-14T04:45:51.359Z,75.58
2022-08-14T04:48:39.694Z,75.64
2022-08-14T04:51:12.248Z,75.57
2022-08-14T04:53:43.153Z,75.70
2022-08-14T04:56:30.799Z,75.56
2022-08-14T04:59:10.653Z,75.34
2022-08-14T05:01:47.838Z,74.89
2022-08-14T05:04:20.779Z,74.45
2022-08-14T05:06:54.483Z,74.28
2022-08-14T05:09:24.404Z,73.88
2022-08-14T05:11:53.245Z,73.63
2022-08-14T05:14:45.721Z,73.45
2022-08-14T05:17:12.523Z,72.98
2022-08-14T05:19:45.024Z,72.85
2022-08-14T05:22:31.314Z,72.71
2022-08-14T05:24:59.772Z,72.57
2022-08-14T05:27:30.977Z,72.24
2022-08-14T05:30:00.035Z,72.10
2022-08-14T05:32:28.590Z,72.10
2022-08-14T05:34:59.662Z,71.74
2022-08-14T05:37:29.740Z,71.65
2022-08-14T05:40:00.538Z,71.49
2022-08-14T05:42:31.964Z,71.30
2022-08-14T05:45:04.219Z,70.87
2022-08-14T05:47:39.379Z,70.39
2022-08-14T05:50:18.469Z,70.14
2022-08-14T05:52:49.831Z,69.98
2022-08-14T05:55:22.898Z,69.54
2022-08-14T05:57:53.271Z,69.14
2022-08-14T06:00:24.693Z,68.75
2022-08-14T06:03:00.070Z,68.42
2022-08-14T06:05:30.279Z,67.96
2022-08-14T06:07:58.942Z,67.50
2022-08-14T06:10:28.345Z,67.19
2022-08-14T06:12:58.135Z,66.61
2022-08-14T06:15:30.429Z,66.10
2022-08-14T06:18:00.236Z,65.81
2022-08-14T06:20:31.593Z,65.47
2022-08-14T06:23:02.714Z,65.14
2022-08-14T06:25:33.122Z,64.92
2022-08-14T06:28:03.849Z,64.66
2022-08-14T06:30:46.151Z,64.29
2022-08-14T06:33:17.985Z,64.13
2022-08-14T06:35:50.180Z,64.16
2022-08-14T06:38:19.545Z,64.02
2022-08-14T06:40:50.991Z,63.95
2022-08-14T06:43:27.048Z,63.82
2022-08-14T06:45:58.655Z,63.43
2022-08-14T06:48:29.224Z,63.29
2022-08-14T06:51:02.686Z,63.08
2022-08-14T06:53:31.911Z,62.75
2022-08-14T06:56:02.179Z,62.66
2022-08-14T06:58:32.231Z,62.25
2022-08-14T07:01:11.813Z,62.18
2022-08-14T07:03:50.845Z,61.52
2022-08-14T07:06:45.533Z,61.59
2022-08-14T07:09:11.633Z,61.62
2022-08-14T07:11:39.961Z,61.13
2022-08-14T07:14:08.888Z,61.00
2022-08-14T07:16:38.241Z,60.68
2022-08-14T07:19:08.484Z,60.75
2022-08-14T07:21:39.863Z,60.62
2022-08-14T07:24:09.736Z,60.48
2022-08-14T07:26:51.201Z,60.35
2022-08-14T07:29:24.063Z,60.00
2022-08-14T07:31:54.586Z,59.52
2022-08-14T07:34:36.103Z,59.30
2022-08-14T07:37:07.265Z,58.89
2022-08-14T07:39:35.678Z,58.62
2022-08-14T07:42:03.973Z,58.02
2022-08-14T07:44:45.718Z,58.22
2022-08-14T07:47:16.663Z,59.07
2022-08-14T07:49:55.506Z,57.99
2022-08-14T07:52:30.705Z,57.16
2022-08-14T07:55:02.085Z,56.90
2022-08-14T07:57:30.374Z,56.55
2022-08-14T07:59:58.882Z,56.73
2022-08-14T08:02:32.494Z,56.48
2022-08-14T08:05:01.828Z,56.31
2022-08-14T08:07:33.097Z,55.07
2022-08-14T08:10:31.153Z,54.77
2022-08-14T08:13:14.117Z,53.61
2022-08-14T08:15:44.314Z,53.47
2022-08-14T08:18:20.442Z,53.33
2022-08-14T08:20:59.509Z,52.53
2022-08-14T08:23:40.636Z,52.05
2022-08-14T08:26:19.386Z,51.63
2022-08-14T08:28:57.162Z,51.08
2022-08-14T08:31:32.881Z,50.41
2022-08-14T08:34:06.258Z,50.30
2022-08-14T08:36:41.226Z,50.61
2022-08-14T08:39:17.977Z,51.49
2022-08-14T08:41:53.774Z,51.57
2022-08-14T08:44:31.689Z,51.57
2022-08-14T08:47:06.687Z,50.79
2022-08-14T08:49:52.824Z,50.75
2022-08-14T08:52:31.680Z,50.42
2022-08-14T08:55:04.326Z,50.54
2022-08-14T08:57:36.045Z,49.94
2022-08-14T09:00:24.232Z,50.00
2022-08-14T09:02:57.819Z,49.53
2022-08-14T09:05:27.210Z,49.92
2022-08-14T09:07:56.360Z,49.42
2022-08-14T09:10:27.164Z,49.82
2022-08-14T09:12:56.416Z,50.54
2022-08-14T09:15:24.739Z,50.19
2022-08-14T09:17:54.650Z,50.49
2022-08-14T09:20:26.289Z,50.50
2022-08-14T09:23:00.515Z,49.88
2022-08-14T09:26:00.415Z,49.29
2022-08-14T09:28:21.125Z,49.97
2022-08-14T09:30:54.563Z,49.90
2022-08-14T09:33:56.104Z,49.77
2022-08-14T09:36:40.675Z,49.50
2022-08-14T09:39:22.862Z,49.51
2022-08-14T09:42:20.221Z,48.66
2022-08-14T09:45:07.950Z,48.28
2022-08-14T09:47:49.175Z,47.90
2022-08-14T09:50:22.188Z,47.63
2022-08-14T09:52:57.703Z,47.84
2022-08-14T09:55:28.254Z,47.73
2022-08-14T09:58:19.229Z,47.22
2022-08-14T10:00:52.750Z,46.58
2022-08-14T10:03:33.364Z,46.28
2022-08-14T10:06:09.236Z,46.32
2022-08-14T10:08:51.190Z,46.25
2022-08-14T10:11:23.054Z,46.99
2022-08-14T10:13:55.747Z,46.90
2022-08-14T10:16:33.262Z,46.87
2022-08-14T10:19:07.102Z,47.07
2022-08-14T10:21:38.805Z,46.80
2022-08-14T10:24:36.401Z,46.48
2022-08-14T10:27:06.656Z,46.08
2022-08-14T10:29:36.179Z,45.70
2022-08-14T10:32:18.224Z,45.76
2022-08-14T10:35:05.378Z,44.63
2022-08-14T10:37:40.199Z,43.49
2022-08-14T11:17:49.173Z,45.86
2022-08-14T11:20:20.748Z,45.83
2022-08-14T11:22:58.832Z,45.41
2022-08-14T11:25:36.734Z,44.97
2022-08-14T11:28:19.204Z,43.79
2022-08-14T11:30:53.881Z,43.67
2022-08-14T11:33:25.820Z,43.67
2022-08-14T11:35:59.555Z,43.78
2022-08-14T11:38:29.332Z,43.36
2022-08-14T11:40:58.805Z,43.22
2022-08-14T11:43:30.636Z,43.42
2022-08-14T11:46:03.663Z,42.75
2022-08-14T11:49:03.576Z,42.81
2022-08-14T11:51:50.909Z,41.91
2022-08-14T11:54:34.711Z,41.73
2022-08-14T11:57:04.468Z,41.35
2022-08-14T11:59:34.269Z,41.62
2022-08-14T12:02:39.164Z,41.82
2022-08-14T12:05:09.215Z,41.65
2022-08-14T12:07:50.079Z,40.95
2022-08-14T12:10:25.575Z,39.66
2022-08-14T12:12:56.560Z,39.05
2022-08-14T12:15:34.179Z,39.21
2022-08-14T12:18:05.088Z,38.20
2022-08-14T12:20:45.954Z,37.54
2022-08-14T12:23:24.735Z,36.82
2022-08-14T12:26:39.455Z,36.88
2022-08-14T12:29:08.888Z,36.20
2022-08-14T12:31:46.761Z,35.42
2022-08-14T12:34:19.990Z,34.95
2022-08-14T12:36:51.879Z,34.68
2022-08-14T12:39:23.747Z,33.91
2022-08-14T12:41:57.371Z,34.07
2022-08-14T12:44:35.180Z,35.14
2022-08-14T12:47:15.059Z,35.03
2022-08-14T12:49:53.839Z,34.84
2022-08-14T12:52:41.755Z,34.58
2022-08-14T12:55:22.141Z,34.61
2022-08-14T12:57:53.715Z,34.74
2022-08-14T13:00:25.613Z,34.38
2022-08-14T13:02:57.152Z,33.96
2022-08-14T13:05:29.268Z,33.88
2022-08-14T13:08:00.858Z,34.40
2022-08-14T13:10:47.218Z,34.67
2022-08-14T13:13:22.437Z,33.79
2022-08-14T13:15:56.001Z,33.37
2022-08-14T13:18:28.339Z,32.60
2022-08-14T13:21:02.301Z,33.10
2022-08-14T13:23:37.392Z,33.22
2022-08-14T13:26:08.831Z,33.60
2022-08-14T13:29:01.465Z,33.96
2022-08-14T13:31:34.596Z,34.39
2022-08-14T13:34:04.559Z,34.91
2022-08-14T13:36:51.603Z,35.80
2022-08-14T13:39:25.923Z,35.57
2022-08-14T13:41:55.716Z,34.94
2022-08-14T13:44:28.911Z,35.49
2022-08-14T13:46:58.866Z,34.75
2022-08-14T13:49:28.975Z,34.16
2022-08-14T13:52:02.537Z,33.74
2022-08-14T13:54:38.184Z,34.36
2022-08-14T13:57:09.918Z,34.32
2022-08-14T13:59:42.788Z,34.23
2022-08-14T14:02:11.855Z,34.44
2022-08-14T14:05:04.546Z,34.94
2022-08-14T14:07:39.330Z,35.20
2022-08-14T14:10:15.070Z,34.72
2022-08-14T14:12:56.147Z,33.83
2022-08-14T14:15:25.338Z,33.75
2022-08-14T14:18:03.848Z,33.91
2022-08-14T14:20:35.435Z,34.56
2022-08-14T14:23:11.734Z,33.98
2022-08-14T14:25:51.403Z,34.80
2022-08-14T14:28:31.611Z,34.99
2022-08-14T14:31:05.998Z,34.34
2022-08-14T14:33:47.050Z,34.19
2022-08-14T14:36:21.525Z,35.52
2022-08-14T14:38:56.254Z,36.51
2022-08-14T14:41:37.767Z,36.74
2022-08-14T14:44:08.882Z,36.65
2022-08-14T14:46:41.471Z,36.56
2022-08-14T14:49:15.062Z,36.14
2022-08-14T14:51:46.680Z,35.85
2022-08-14T14:54:30.045Z,35.83
2022-08-14T14:57:02.697Z,35.73
2022-08-14T14:59:33.490Z,35.97
2022-08-14T15:02:09.311Z,36.09
2022-08-14T15:04:43.628Z,35.83
2022-08-14T15:07:13.185Z,35.82
2022-08-14T15:09:45.156Z,35.59
2022-08-14T15:12:34.792Z,35.64
2022-08-14T15:15:09.577Z,35.80
2022-08-14T15:17:41.662Z,35.32
2022-08-14T15:20:17.321Z,35.87
2022-08-14T15:23:07.981Z,35.96
2022-08-14T15:25:41.321Z,35.79
2022-08-14T15:28:13.126Z,35.75
2022-08-14T15:30:51.005Z,35.53
2022-08-14T15:33:37.729Z,35.37
2022-08-14T15:36:29.375Z,35.43
2022-08-14T15:38:59.137Z,35.64
2022-08-14T15:41:41.608Z,35.73
2022-08-14T15:44:24.670Z,35.90
2022-08-14T15:46:54.761Z,35.57
2022-08-14T15:49:24.460Z,35.29
2022-08-14T15:51:59.849Z,35.04
2022-08-14T15:54:31.293Z,35.14
2022-08-14T15:57:02.240Z,35.14
2022-08-14T15:59:48.129Z,35.94
2022-08-14T16:02:18.713Z,36.12
2022-08-14T16:04:50.742Z,35.93
2022-08-14T16:07:22.318Z,36.05
2022-08-14T16:10:27.295Z,36.20
2022-08-14T16:12:47.597Z,35.87
2022-08-14T16:15:24.857Z,35.88
2022-08-14T16:18:02.741Z,35.80
2022-08-14T16:20:41.626Z,35.80
2022-08-14T16:23:14.830Z,35.99
2022-08-14T16:25:46.576Z,36.24
2022-08-14T16:28:27.673Z,36.66
2022-08-14T16:31:00.373Z,36.83
2022-08-14T16:33:59.104Z,37.08
2022-08-14T16:36:31.445Z,37.34
2022-08-14T16:39:02.109Z,37.49
2022-08-14T16:41:31.615Z,37.50
2022-08-14T16:44:04.731Z,37.10
2022-08-14T16:46:38.334Z,37.13
2022-08-14T16:49:14.195Z,37.40
2022-08-14T16:51:45.031Z,37.76
2022-08-14T16:54:34.193Z,37.89
2022-08-14T16:57:16.862Z,37.83
2022-08-14T16:59:51.857Z,38.06
2022-08-14T17:02:36.924Z,38.18
2022-08-14T17:05:22.303Z,38.31
2022-08-14T17:08:32.282Z,38.49
2022-08-14T17:11:16.609Z,38.70
2022-08-14T17:14:11.405Z,38.73
2022-08-14T17:17:00.970Z,38.99
2022-08-14T17:19:41.139Z,39.73
2022-08-14T17:22:12.504Z,41.29
2022-08-14T17:24:57.088Z,41.72
2022-08-14T17:27:32.624Z,41.79
2022-08-14T17:30:02.634Z,41.64
2022-08-14T17:32:55.825Z,43.30
2022-08-14T17:35:58.778Z,44.25
2022-08-14T17:38:39.292Z,45.20
2022-08-14T17:41:23.635Z,45.52
2022-08-14T17:46:43.224Z,46.77
2022-08-14T17:49:18.266Z,46.84
2022-08-14T17:52:07.640Z,47.38
2022-08-14T17:54:59.105Z,47.47
2022-08-14T17:57:46.133Z,47.11
2022-08-14T18:00:17.954Z,47.25
2022-08-14T18:02:50.972Z,47.02
2022-08-14T18:05:22.824Z,47.75
2022-08-14T18:08:32.037Z,48.13
2022-08-14T18:10:56.163Z,48.67
2022-08-14T18:13:50.218Z,48.66
2022-08-14T18:16:20.581Z,48.61
2022-08-14T18:18:52.479Z,49.12
2022-08-14T18:21:41.472Z,49.73
2022-08-14T18:24:20.037Z,50.06
2022-08-14T18:27:09.139Z,49.60
2022-08-14T18:29:54.912Z,50.04
2022-08-14T18:32:47.313Z,50.74
2022-08-14T18:35:45.296Z,51.59
2022-08-14T18:38:26.074Z,52.07
2022-08-14T18:41:17.000Z,52.58
2022-08-14T18:43:59.172Z,53.34
2022-08-14T18:46:59.593Z,53.95
2022-08-14T18:49:18.337Z,54.12
2022-08-14T18:51:47.122Z,54.48
2022-08-14T18:54:30.006Z,54.87
2022-08-14T18:57:05.553Z,55.25
2022-08-14T18:59:43.053Z,55.42
2022-08-14T19:02:34.447Z,55.55
2022-08-14T19:05:12.370Z,56.07
2022-08-14T19:07:41.163Z,56.47
2022-08-14T19:10:16.808Z,56.94
2022-08-14T19:13:01.522Z,57.38
2022-08-14T19:15:34.744Z,57.93
2022-08-14T19:18:26.401Z,58.29
2022-08-14T19:20:59.710Z,58.48
2022-08-14T19:23:42.497Z,58.77
2022-08-14T19:26:36.741Z,58.87
2022-08-14T19:29:23.538Z,59.21
2022-08-14T19:31:55.404Z,59.48
2022-08-14T19:34:37.308Z,59.65
2022-08-14T19:37:10.143Z,59.99
2022-08-14T19:39:53.754Z,59.96
2022-08-14T19:42:28.314Z,60.02
2022-08-14T19:45:01.109Z,60.35
2022-08-14T19:47:38.721Z,60.22
2022-08-14T19:50:37.904Z,60.56
2022-08-14T19:53:05.369Z,60.86
2022-08-14T19:55:45.972Z,61.46
2022-08-14T19:58:14.839Z,61.22
2022-08-14T20:00:57.277Z,61.29
2022-08-14T20:03:26.260Z,61.03
2022-08-14T20:06:18.206Z,61.17
2022-08-14T20:10:58.598Z,61.43
2022-08-14T20:11:44.559Z,61.77
2022-08-14T20:14:31.428Z,62.11
2022-08-14T20:17:06.637Z,62.72
2022-08-14T20:19:37.817Z,63.13
2022-08-14T20:22:37.237Z,63.65
2022-08-14T20:25:14.058Z,63.75
2022-08-14T20:27:45.085Z,64.36
2022-08-14T20:30:33.674Z,64.53
2022-08-14T20:33:11.214Z,64.62
2022-08-14T20:35:47.586Z,64.39
2022-08-14T20:38:29.276Z,64.40
2022-08-14T20:41:06.691Z,64.74
2022-08-14T20:43:53.050Z,64.49
2022-08-14T20:46:30.027Z,64.71
2022-08-14T20:49:03.889Z,64.67
2022-08-14T20:51:47.419Z,64.83
2022-08-14T20:54:33.880Z,65.01
2022-08-14T20:57:09.780Z,65.16
2022-08-14T20:59:43.686Z,65.17
2022-08-14T21:02:46.194Z,65.34
2022-08-14T21:05:33.466Z,65.13
2022-08-14T21:08:09.956Z,65.33
2022-08-14T21:10:54.971Z,65.53
2022-08-14T21:14:20.695Z,65.42
2022-08-14T21:16:33.528Z,65.34
2022-08-14T21:19:07.042Z,65.37
2022-08-14T21:21:41.743Z,64.82
2022-08-14T21:24:38.502Z,64.81
2022-08-14T21:27:19.834Z,64.68
2022-08-14T21:29:55.592Z,64.82
2022-08-14T21:32:50.242Z,64.92
2022-08-14T21:35:29.879Z,65.25
2022-08-14T21:37:58.799Z,65.09
2022-08-14T21:40:41.628Z,64.91
2022-08-14T21:43:18.859Z,64.93
2022-08-14T21:45:51.719Z,65.01
2022-08-14T21:48:25.233Z,65.00
2022-08-14T21:51:53.003Z,65.00
2022-08-14T21:53:58.041Z,64.96
2022-08-14T21:56:38.631Z,65.48
2022-08-14T21:59:17.914Z,65.49
2022-08-14T22:02:01.035Z,65.76
2022-08-14T22:04:40.563Z,66.13
2022-08-14T22:07:17.270Z,66.46
2022-08-14T22:09:55.016Z,67.16
2022-08-14T22:12:45.420Z,67.40
2022-08-14T22:15:18.151Z,67.10
2022-08-14T22:17:54.094Z,67.23
2022-08-14T22:20:28.791Z,67.24
2022-08-14T22:23:00.945Z,67.31
2022-08-14T22:25:34.490Z,67.16
2022-08-14T22:28:15.805Z,67.04
2022-08-14T22:30:45.811Z,67.12
2022-08-14T22:33:16.540Z,67.01
2022-08-14T22:35:46.275Z,66.95
2022-08-14T22:38:37.953Z,67.09
2022-08-14T22:41:25.651Z,66.69
2022-08-14T22:44:06.453Z,66.76
2022-08-14T22:46:36.534Z,66.63
2022-08-14T22:49:16.550Z,66.83
2022-08-14T22:52:03.768Z,66.51
2022-08-14T22:54:54.449Z,66.66
2022-08-14T22:57:23.232Z,66.62
2022-08-14T22:59:52.565Z,66.84
2022-08-14T23:02:30.392Z,66.64
2022-08-14T23:05:04.063Z,66.86
2022-08-14T23:08:56.658Z,66.80
2022-08-14T23:10:34.116Z,66.81
2022-08-14T23:13:06.752Z,67.03
2022-08-14T23:15:37.549Z,67.15
2022-08-14T23:18:07.615Z,67.22
2022-08-14T23:20:42.615Z,67.52
2022-08-14T23:23:22.660Z,67.46
2022-08-14T23:25:59.003Z,67.53
2022-08-14T23:28:57.258Z,67.73
2022-08-14T23:31:35.647Z,67.38
2022-08-14T23:34:07.765Z,67.51
2022-08-14T23:36:54.142Z,67.74
2022-08-14T23:39:30.000Z,67.88
2022-08-14T23:42:04.606Z,67.99
2022-08-14T23:44:38.127Z,67.95
2022-08-14T23:47:10.696Z,68.16
2022-08-14T23:49:56.754Z,68.24
2022-08-14T23:53:06.331Z,68.57
2022-08-14T23:55:19.315Z,68.85
2022-08-14T23:57:57.573Z,69.13
